KFLD/FLD METAR and TAF weather

Enter ICAO airport designator
Station Type Date Time Source
KFLD METAR 2021/05/15 22:53 UTC NOAA

KFLD 152253Z AUTO 19007KT 10SM OVC019 14/08 A3013 RMK AO2 SLP204 T01440083


Station Type Date Time Source
KFLD Decoded METAR 2021/05/15 22:53 UTC NOAA

FOND DU LAC COUNTY AIRPORT, WI, United States (KFLD) 43-46N 88-29W 240M
May 15, 2021 - 06:53 PM EDT / 2021.05.15 2253 UTC
Wind: from the S (190 degrees) at 8 MPH (7 KT):0
Visibility: 10 mile(s):0
Sky conditions: overcast
Temperature: 57.9 F (14.4 C)
Dew Point: 46.9 F (8.3 C)
Relative Humidity: 66%
Pressure (altimeter): 30.13 in. Hg (1020 hPa)
ob: KFLD 152253Z AUTO 19007KT 10SM OVC019 14/08 A3013 RMK AO2 SLP204 T01440083
cycle: 23

Station Type Date Time Source
KFLD TAF UTC NOAA

Error!

Example: see airport list